Weather at Muzaffarpur Airport

Public forecast

Using degrees Celsius for public forecast. Weather courtesy of forecast.io.

Closest aviation weather report (METAR) to Muzaffarpur Airport

Closest report is Lok Nayak Jayaprakash Airport, 34.0 nm (62.9 km) SSW. Retrieved 2020/09/19 18:30 UTC (10 minutes ago):

VEPT 191830Z 00000KT 3500 HZ FEW100 27/24 Q1000 NOSIG

Closest aviation forecast (TAF) to Muzaffarpur Airport

Closest forecast is Lok Nayak Jayaprakash Airport, 34.0 nm (62.9 km) SSW. Retrieved 2020/09/19 12:51 UTC (6 hours ago):

TAF VEPT 191100Z 1912/2018 09005KT 3500 -RA BR HZ FEW018 SCT100 BECMG 1916/1918 VRB03KT 2000 -RA BR BECMG 1922/1924 05005KT FEW018 BECMG 2003/2005 36005KT 3500 -RA BR FEW018 BECMG 2007/2009 5000 -RA BR HZ FEW018 SCT100 BECMG 2014/2016 3000 -RA BR SCT018 SCT100